sensor_id;sensor_type;location;lat;lon;timestamp;pressure;altitude;pressure_sealevel;temperature;humidity
73501;BME280;61721;42.206;25.320;2024-03-23T00:54:57;99682.44;;;7.35;53.78
73501;BME280;61721;42.206;25.320;2024-03-23T00:57:23;99675.63;;;7.39;53.59
73501;BME280;61721;42.206;25.320;2024-03-23T00:59:51;99685.59;;;7.38;53.75
73501;BME280;61721;42.206;25.320;2024-03-23T01:02:17;99678.16;;;7.47;54.03
73501;BME280;61721;42.206;25.320;2024-03-23T01:04:44;99674.31;;;7.35;53.70
73501;BME280;61721;42.206;25.320;2024-03-23T01:07:10;99681.88;;;7.67;53.07
73501;BME280;61721;42.206;25.320;2024-03-23T01:09:38;99676.94;;;7.50;53.42
73501;BME280;61721;42.206;25.320;2024-03-23T01:12:06;99675.34;;;7.34;53.65
73501;BME280;61721;42.206;25.320;2024-03-23T01:14:33;99676.50;;;7.25;53.99
73501;BME280;61721;42.206;25.320;2024-03-23T01:17:02;99682.56;;;7.27;53.92
73501;BME280;61721;42.206;25.320;2024-03-23T01:19:29;99680.22;;;7.45;53.38
73501;BME280;61721;42.206;25.320;2024-03-23T01:21:56;99677.97;;;7.49;53.41
73501;BME280;61721;42.206;25.320;2024-03-23T01:24:23;99683.66;;;7.60;52.54
73501;BME280;61721;42.206;25.320;2024-03-23T01:26:50;99678.06;;;7.62;52.62
73501;BME280;61721;42.206;25.320;2024-03-23T01:29:19;99683.94;;;7.65;52.62
73501;BME280;61721;42.206;25.320;2024-03-23T01:31:45;99684.63;;;7.74;52.23
73501;BME280;61721;42.206;25.320;2024-03-23T01:34:12;99677.88;;;7.63;52.29
73501;BME280;61721;42.206;25.320;2024-03-23T01:36:39;99682.91;;;7.66;52.42
73501;BME280;61721;42.206;25.320;2024-03-23T01:39:06;99669.22;;;7.74;52.33
73501;BME280;61721;42.206;25.320;2024-03-23T01:41:35;99672.31;;;7.43;52.98
73501;BME280;61721;42.206;25.320;2024-03-23T01:44:05;99670.44;;;7.72;52.44
73501;BME280;61721;42.206;25.320;2024-03-23T01:46:34;99679.66;;;7.77;52.06
73501;BME280;61721;42.206;25.320;2024-03-23T01:49:01;99680.03;;;7.74;52.24
73501;BME280;61721;42.206;25.320;2024-03-23T01:51:29;99673.78;;;7.46;52.20
73501;BME280;61721;42.206;25.320;2024-03-23T01:53:57;99666.84;;;6.94;51.84
73501;BME280;61721;42.206;25.320;2024-03-23T01:56:23;99668.41;;;6.82;52.96
73501;BME280;61721;42.206;25.320;2024-03-23T01:58:50;99677.13;;;6.12;55.24
73501;BME280;61721;42.206;25.320;2024-03-23T02:01:17;99680.03;;;6.83;53.22
73501;BME280;61721;42.206;25.320;2024-03-23T02:03:46;99675.09;;;6.86;52.67
73501;BME280;61721;42.206;25.320;2024-03-23T02:06:12;99680.22;;;6.60;52.70
73501;BME280;61721;42.206;25.320;2024-03-23T02:08:40;99676.69;;;6.45;53.41
73501;BME280;61721;42.206;25.320;2024-03-23T02:11:06;99681.47;;;6.43;53.69
73501;BME280;61721;42.206;25.320;2024-03-23T02:13:34;99687.66;;;6.58;53.41
73501;BME280;61721;42.206;25.320;2024-03-23T02:16:00;99682.09;;;6.45;53.77
73501;BME280;61721;42.206;25.320;2024-03-23T02:18:28;99690.72;;;6.33;53.86
73501;BME280;61721;42.206;25.320;2024-03-23T02:20:56;99684.34;;;6.26;53.96
73501;BME280;61721;42.206;25.320;2024-03-23T02:23:25;99683.34;;;6.27;54.12
73501;BME280;61721;42.206;25.320;2024-03-23T02:25:51;99687.34;;;6.31;54.02
73501;BME280;61721;42.206;25.320;2024-03-23T02:28:19;99687.06;;;6.41;53.85
73501;BME280;61721;42.206;25.320;2024-03-23T02:30:45;99679.13;;;6.40;53.96
73501;BME280;61721;42.206;25.320;2024-03-23T02:33:12;99683.63;;;6.32;53.99
73501;BME280;61721;42.206;25.320;2024-03-23T02:35:45;99684.91;;;6.37;53.99
73501;BME280;61721;42.206;25.320;2024-03-23T02:38:13;99681.47;;;6.43;53.51
73501;BME280;61721;42.206;25.320;2024-03-23T02:40:41;99678.66;;;6.36;53.60
73501;BME280;61721;42.206;25.320;2024-03-23T02:43:09;99680.28;;;6.01;54.41
73501;BME280;61721;42.206;25.320;2024-03-23T02:45:35;99683.72;;;6.10;54.33
73501;BME280;61721;42.206;25.320;2024-03-23T02:48:03;99681.78;;;6.54;53.52
73501;BME280;61721;42.206;25.320;2024-03-23T02:50:29;99680.34;;;6.37;53.34
73501;BME280;61721;42.206;25.320;2024-03-23T02:52:57;99684.56;;;6.10;54.41
73501;BME280;61721;42.206;25.320;2024-03-23T02:55:24;99675.25;;;5.98;54.60
73501;BME280;61721;42.206;25.320;2024-03-23T02:57:52;99683.78;;;5.87;54.57
73501;BME280;61721;42.206;25.320;2024-03-23T03:00:19;99678.34;;;5.95;54.75
73501;BME280;61721;42.206;25.320;2024-03-23T03:02:46;99678.41;;;6.02;54.49
73501;BME280;61721;42.206;25.320;2024-03-23T03:05:12;99678.03;;;5.90;54.67
73501;BME280;61721;42.206;25.320;2024-03-23T03:07:40;99676.19;;;6.05;54.29
73501;BME280;61721;42.206;25.320;2024-03-23T03:10:07;99684.13;;;5.69;54.84
73501;BME280;61721;42.206;25.320;2024-03-23T03:12:36;99679.41;;;5.71;54.74
73501;BME280;61721;42.206;25.320;2024-03-23T03:15:06;99683.94;;;5.56;55.26
73501;BME280;61721;42.206;25.320;2024-03-23T03:17:34;99686.44;;;5.57;55.44
73501;BME280;61721;42.206;25.320;2024-03-23T03:20:00;99682.63;;;5.52;55.31
73501;BME280;61721;42.206;25.320;2024-03-23T03:22:28;99682.22;;;5.40;55.16
73501;BME280;61721;42.206;25.320;2024-03-23T03:24:54;99678.84;;;5.38;55.76
73501;BME280;61721;42.206;25.320;2024-03-23T03:27:22;99689.38;;;5.33;55.92
73501;BME280;61721;42.206;25.320;2024-03-23T03:29:49;99677.22;;;5.37;55.59
73501;BME280;61721;42.206;25.320;2024-03-23T03:32:17;99678.59;;;5.33;55.82
73501;BME280;61721;42.206;25.320;2024-03-23T03:34:44;99678.16;;;5.21;55.90
73501;BME280;61721;42.206;25.320;2024-03-23T03:37:11;99679.31;;;5.27;55.72
73501;BME280;61721;42.206;25.320;2024-03-23T03:39:37;99678.75;;;5.32;55.43
73501;BME280;61721;42.206;25.320;2024-03-23T03:42:05;99680.09;;;5.13;55.65
73501;BME280;61721;42.206;25.320;2024-03-23T03:44:33;99679.22;;;4.98;56.30
73501;BME280;61721;42.206;25.320;2024-03-23T03:47:02;99687.06;;;5.07;55.61
73501;BME280;61721;42.206;25.320;2024-03-23T03:49:30;99678.06;;;5.15;55.73
73501;BME280;61721;42.206;25.320;2024-03-23T03:51:57;99678.41;;;5.12;55.58
73501;BME280;61721;42.206;25.320;2024-03-23T03:54:24;99680.16;;;5.05;55.71
73501;BME280;61721;42.206;25.320;2024-03-23T03:56:51;99679.88;;;5.00;55.82
73501;BME280;61721;42.206;25.320;2024-03-23T03:59:17;99677.88;;;4.94;55.65
73501;BME280;61721;42.206;25.320;2024-03-23T04:01:46;99681.53;;;5.01;55.43
73501;BME280;61721;42.206;25.320;2024-03-23T04:04:12;99686.88;;;5.09;55.73
73501;BME280;61721;42.206;25.320;2024-03-23T04:06:44;99684.53;;;5.06;55.40
73501;BME280;61721;42.206;25.320;2024-03-23T04:09:10;99687.16;;;4.91;55.86
73501;BME280;61721;42.206;25.320;2024-03-23T04:11:37;99688.44;;;4.80;55.97
73501;BME280;61721;42.206;25.320;2024-03-23T04:14:04;99691.44;;;5.08;55.82
73501;BME280;61721;42.206;25.320;2024-03-23T04:16:34;99688.78;;;5.00;55.30
73501;BME280;61721;42.206;25.320;2024-03-23T04:19:01;99689.34;;;4.96;55.49
73501;BME280;61721;42.206;25.320;2024-03-23T04:21:28;99691.25;;;4.87;55.91
73501;BME280;61721;42.206;25.320;2024-03-23T04:23:57;99695.81;;;4.87;55.70
73501;BME280;61721;42.206;25.320;2024-03-23T04:26:23;99698.78;;;4.92;55.53
73501;BME280;61721;42.206;25.320;2024-03-23T04:28:50;99702.16;;;4.94;55.82
73501;BME280;61721;42.206;25.320;2024-03-23T04:31:17;99706.47;;;5.26;54.54
73501;BME280;61721;42.206;25.320;2024-03-23T04:33:44;99704.69;;;5.18;54.89
73501;BME280;61721;42.206;25.320;2024-03-23T04:36:10;99701.78;;;5.42;54.16
73501;BME280;61721;42.206;25.320;2024-03-23T04:38:38;99703.25;;;5.07;55.17
73501;BME280;61721;42.206;25.320;2024-03-23T04:41:07;99709.59;;;5.37;54.53
73501;BME280;61721;42.206;25.320;2024-03-23T04:43:34;99710.06;;;5.18;54.58
73501;BME280;61721;42.206;25.320;2024-03-23T04:46:01;99711.09;;;5.17;54.53
73501;BME280;61721;42.206;25.320;2024-03-23T04:48:28;99705.44;;;5.04;55.08
73501;BME280;61721;42.206;25.320;2024-03-23T04:50:57;99706.47;;;5.03;55.48
73501;BME280;61721;42.206;25.320;2024-03-23T04:53:25;99705.38;;;5.12;55.35
73501;BME280;61721;42.206;25.320;2024-03-23T04:55:54;99708.06;;;5.35;54.40
73501;BME280;61721;42.206;25.320;2024-03-23T04:58:22;99704.53;;;5.34;54.43
73501;BME280;61721;42.206;25.320;2024-03-23T05:00:53;99705.22;;;5.51;53.93
73501;BME280;61721;42.206;25.320;2024-03-23T05:03:20;99709.06;;;5.56;54.12
73501;BME280;61721;42.206;25.320;2024-03-23T05:05:48;99720.00;;;5.40;54.18
73501;BME280;61721;42.206;25.320;2024-03-23T05:08:14;99713.66;;;5.33;54.28
73501;BME280;61721;42.206;25.320;2024-03-23T05:10:43;99710.72;;;5.20;54.94
73501;BME280;61721;42.206;25.320;2024-03-23T05:13:09;99703.94;;;5.24;55.15
73501;BME280;61721;42.206;25.320;2024-03-23T05:15:38;99712.28;;;5.37;55.06
73501;BME280;61721;42.206;25.320;2024-03-23T05:18:05;99711.38;;;5.45;55.07
73501;BME280;61721;42.206;25.320;2024-03-23T05:20:40;99717.94;;;5.65;54.38
73501;BME280;61721;42.206;25.320;2024-03-23T05:23:06;99718.19;;;5.55;54.51
73501;BME280;61721;42.206;25.320;2024-03-23T05:25:34;99717.59;;;5.45;54.92
73501;BME280;61721;42.206;25.320;2024-03-23T05:28:00;99714.31;;;5.73;54.56
73501;BME280;61721;42.206;25.320;2024-03-23T05:30:35;99722.97;;;5.83;54.38
73501;BME280;61721;42.206;25.320;2024-03-23T05:33:03;99715.88;;;6.05;54.07
73501;BME280;61721;42.206;25.320;2024-03-23T05:35:30;99719.69;;;6.10;53.82
73501;BME280;61721;42.206;25.320;2024-03-23T05:37:56;99721.06;;;6.06;53.67
73501;BME280;61721;42.206;25.320;2024-03-23T05:40:25;99719.59;;;6.18;53.74
73501;BME280;61721;42.206;25.320;2024-03-23T05:42:52;99722.00;;;6.43;53.09
73501;BME280;61721;42.206;25.320;2024-03-23T05:45:21;99722.56;;;6.53;53.02
73501;BME280;61721;42.206;25.320;2024-03-23T05:47:48;99720.03;;;6.87;52.55
73501;BME280;61721;42.206;25.320;2024-03-23T05:50:18;99719.50;;;6.77;52.88
73501;BME280;61721;42.206;25.320;2024-03-23T05:52:44;99720.34;;;6.78;53.45
73501;BME280;61721;42.206;25.320;2024-03-23T05:55:11;99712.31;;;7.05;53.12
73501;BME280;61721;42.206;25.320;2024-03-23T05:57:38;99714.72;;;7.15;52.34
73501;BME280;61721;42.206;25.320;2024-03-23T06:00:06;99719.28;;;7.36;52.67
73501;BME280;61721;42.206;25.320;2024-03-23T06:02:36;99705.16;;;7.40;52.17
73501;BME280;61721;42.206;25.320;2024-03-23T06:05:04;99709.09;;;7.59;52.26
73501;BME280;61721;42.206;25.320;2024-03-23T06:07:32;99709.09;;;7.59;52.32
73501;BME280;61721;42.206;25.320;2024-03-23T06:09:59;99704.75;;;7.93;52.04
73501;BME280;61721;42.206;25.320;2024-03-23T06:12:26;99708.88;;;7.89;52.58
73501;BME280;61721;42.206;25.320;2024-03-23T06:14:53;99714.03;;;8.11;52.30
73501;BME280;61721;42.206;25.320;2024-03-23T06:17:19;99713.47;;;8.16;52.04
73501;BME280;61721;42.206;25.320;2024-03-23T06:19:47;99711.47;;;8.31;51.46
73501;BME280;61721;42.206;25.320;2024-03-23T06:22:13;99711.22;;;8.26;51.36
73501;BME280;61721;42.206;25.320;2024-03-23T06:24:42;99707.44;;;8.20;51.66
73501;BME280;61721;42.206;25.320;2024-03-23T06:27:08;99703.53;;;8.71;51.19
73501;BME280;61721;42.206;25.320;2024-03-23T06:29:35;99705.97;;;8.52;51.07
73501;BME280;61721;42.206;25.320;2024-03-23T06:32:02;99707.72;;;8.80;50.52
73501;BME280;61721;42.206;25.320;2024-03-23T06:34:30;99707.34;;;8.83;50.33
73501;BME280;61721;42.206;25.320;2024-03-23T06:36:56;99703.59;;;8.90;50.67
73501;BME280;61721;42.206;25.320;2024-03-23T06:39:23;99714.00;;;8.87;50.25
73501;BME280;61721;42.206;25.320;2024-03-23T06:41:54;99704.94;;;9.41;49.65
73501;BME280;61721;42.206;25.320;2024-03-23T06:44:22;99707.47;;;9.49;48.63
73501;BME280;61721;42.206;25.320;2024-03-23T06:46:49;99707.47;;;9.68;48.72
73501;BME280;61721;42.206;25.320;2024-03-23T06:49:16;99709.94;;;9.83;48.14
73501;BME280;61721;42.206;25.320;2024-03-23T06:51:43;99705.75;;;10.00;48.31
73501;BME280;61721;42.206;25.320;2024-03-23T06:54:12;99710.28;;;10.39;48.39
73501;BME280;61721;42.206;25.320;2024-03-23T06:56:38;99710.13;;;10.15;46.63
73501;BME280;61721;42.206;25.320;2024-03-23T06:59:07;99712.28;;;10.70;47.00
73501;BME280;61721;42.206;25.320;2024-03-23T07:01:33;99704.06;;;10.84;46.54
73501;BME280;61721;42.206;25.320;2024-03-23T07:04:01;99711.16;;;10.14;46.91
73501;BME280;61721;42.206;25.320;2024-03-23T07:06:28;99709.00;;;10.55;46.52
73501;BME280;61721;42.206;25.320;2024-03-23T07:08:55;99702.81;;;10.22;47.15
73501;BME280;61721;42.206;25.320;2024-03-23T07:11:22;99704.84;;;10.46;46.77
73501;BME280;61721;42.206;25.320;2024-03-23T07:13:50;99709.50;;;10.26;46.76
73501;BME280;61721;42.206;25.320;2024-03-23T07:16:18;99698.63;;;10.13;47.54
73501;BME280;61721;42.206;25.320;2024-03-23T07:18:45;99696.34;;;10.23;47.58
73501;BME280;61721;42.206;25.320;2024-03-23T07:21:12;99697.06;;;10.56;47.36
73501;BME280;61721;42.206;25.320;2024-03-23T07:23:42;99697.66;;;11.34;47.33
73501;BME280;61721;42.206;25.320;2024-03-23T07:26:11;99692.22;;;11.34;46.32
73501;BME280;61721;42.206;25.320;2024-03-23T07:28:38;99700.66;;;10.95;45.30
73501;BME280;61721;42.206;25.320;2024-03-23T07:31:10;99688.31;;;10.92;46.18
73501;BME280;61721;42.206;25.320;2024-03-23T07:33:42;99681.44;;;11.21;47.16
73501;BME280;61721;42.206;25.320;2024-03-23T07:36:08;99688.16;;;11.75;44.81
73501;BME280;61721;42.206;25.320;2024-03-23T07:38:36;99684.03;;;11.41;45.28
73501;BME280;61721;42.206;25.320;2024-03-23T07:41:05;99683.41;;;11.64;44.61
73501;BME280;61721;42.206;25.320;2024-03-23T07:43:33;99677.06;;;12.38;42.84
73501;BME280;61721;42.206;25.320;2024-03-23T07:45:59;99675.72;;;11.54;43.54
73501;BME280;61721;42.206;25.320;2024-03-23T07:48:28;99678.72;;;11.77;43.26
73501;BME280;61721;42.206;25.320;2024-03-23T07:51:03;99682.97;;;12.35;43.49
73501;BME280;61721;42.206;25.320;2024-03-23T07:53:31;99678.81;;;11.89;43.85
73501;BME280;61721;42.206;25.320;2024-03-23T07:55:58;99674.31;;;12.01;44.26
73501;BME280;61721;42.206;25.320;2024-03-23T07:58:26;99673.59;;;11.63;44.42
73501;BME280;61721;42.206;25.320;2024-03-23T08:00:52;99672.34;;;12.08;43.29
73501;BME280;61721;42.206;25.320;2024-03-23T08:03:20;99680.75;;;12.07;43.46
73501;BME280;61721;42.206;25.320;2024-03-23T08:05:47;99670.81;;;12.67;42.28
73501;BME280;61721;42.206;25.320;2024-03-23T08:08:16;99663.41;;;12.56;41.93
73501;BME280;61721;42.206;25.320;2024-03-23T08:10:49;99668.34;;;12.95;41.80
73501;BME280;61721;42.206;25.320;2024-03-23T08:13:16;99675.53;;;12.90;42.02
73501;BME280;61721;42.206;25.320;2024-03-23T08:15:43;99666.22;;;13.09;41.20
73501;BME280;61721;42.206;25.320;2024-03-23T08:18:11;99667.59;;;13.18;40.55
73501;BME280;61721;42.206;25.320;2024-03-23T08:20:37;99661.00;;;13.08;41.32
73501;BME280;61721;42.206;25.320;2024-03-23T08:23:06;99661.03;;;12.78;40.57
73501;BME280;61721;42.206;25.320;2024-03-23T08:25:34;99667.00;;;13.69;40.06
73501;BME280;61721;42.206;25.320;2024-03-23T08:28:01;99663.75;;;13.49;40.22
73501;BME280;61721;42.206;25.320;2024-03-23T08:30:28;99654.81;;;13.00;40.67
73501;BME280;61721;42.206;25.320;2024-03-23T08:32:56;99657.31;;;13.32;41.09
73501;BME280;61721;42.206;25.320;2024-03-23T08:35:22;99655.13;;;14.10;38.71
73501;BME280;61721;42.206;25.320;2024-03-23T08:37:49;99655.44;;;14.14;38.61
73501;BME280;61721;42.206;25.320;2024-03-23T08:40:16;99646.91;;;13.52;39.24
73501;BME280;61721;42.206;25.320;2024-03-23T08:42:44;99652.38;;;13.99;39.11
73501;BME280;61721;42.206;25.320;2024-03-23T08:45:11;99645.13;;;14.04;37.47
73501;BME280;61721;42.206;25.320;2024-03-23T08:47:38;99645.34;;;14.50;38.34
73501;BME280;61721;42.206;25.320;2024-03-23T08:50:05;99649.31;;;15.44;37.30
73501;BME280;61721;42.206;25.320;2024-03-23T08:52:33;99641.81;;;14.66;37.78
73501;BME280;61721;42.206;25.320;2024-03-23T08:54:59;99642.00;;;16.00;37.03
73501;BME280;61721;42.206;25.320;2024-03-23T08:57:27;99635.94;;;14.74;38.22
73501;BME280;61721;42.206;25.320;2024-03-23T08:59:54;99631.72;;;15.73;37.75
73501;BME280;61721;42.206;25.320;2024-03-23T09:02:22;99627.03;;;15.40;37.42
73501;BME280;61721;42.206;25.320;2024-03-23T09:04:48;99628.53;;;14.34;39.64
73501;BME280;61721;42.206;25.320;2024-03-23T09:07:16;99623.50;;;15.11;38.57
73501;BME280;61721;42.206;25.320;2024-03-23T09:09:42;99616.25;;;15.67;37.74
73501;BME280;61721;42.206;25.320;2024-03-23T09:12:09;99620.59;;;15.01;37.62
73501;BME280;61721;42.206;25.320;2024-03-23T09:14:35;99619.75;;;15.79;37.12
73501;BME280;61721;42.206;25.320;2024-03-23T09:17:05;99617.50;;;15.76;36.89
73501;BME280;61721;42.206;25.320;2024-03-23T09:19:31;99607.97;;;14.72;37.06
73501;BME280;61721;42.206;25.320;2024-03-23T09:21:58;99608.34;;;15.87;35.70
73501;BME280;61721;42.206;25.320;2024-03-23T09:24:25;99601.09;;;17.12;34.59
73501;BME280;61721;42.206;25.320;2024-03-23T09:26:52;99596.84;;;16.51;34.55
73501;BME280;61721;42.206;25.320;2024-03-23T09:29:18;99595.94;;;16.02;34.77
73501;BME280;61721;42.206;25.320;2024-03-23T09:31:46;99597.06;;;17.20;33.90
73501;BME280;61721;42.206;25.320;2024-03-23T09:34:13;99592.97;;;17.91;34.15
73501;BME280;61721;42.206;25.320;2024-03-23T09:36:41;99581.09;;;18.38;33.25
73501;BME280;61721;42.206;25.320;2024-03-23T09:39:07;99586.53;;;18.28;33.75
73501;BME280;61721;42.206;25.320;2024-03-23T09:41:35;99580.81;;;17.18;33.20
73501;BME280;61721;42.206;25.320;2024-03-23T09:44:02;99575.84;;;17.47;32.88
73501;BME280;61721;42.206;25.320;2024-03-23T09:46:30;99569.75;;;17.77;33.04
73501;BME280;61721;42.206;25.320;2024-03-23T09:49:00;99563.94;;;18.15;32.69
73501;BME280;61721;42.206;25.320;2024-03-23T09:51:31;99558.72;;;19.47;31.26
73501;BME280;61721;42.206;25.320;2024-03-23T09:53:57;99560.41;;;19.58;30.64
73501;BME280;61721;42.206;25.320;2024-03-23T09:56:25;99548.25;;;19.49;30.64
73501;BME280;61721;42.206;25.320;2024-03-23T09:58:51;99544.94;;;17.72;30.77
73501;BME280;61721;42.206;25.320;2024-03-23T10:01:18;99542.16;;;19.52;29.91
73501;BME280;61721;42.206;25.320;2024-03-23T10:03:45;99534.38;;;19.85;27.91
73501;BME280;61721;42.206;25.320;2024-03-23T10:06:12;99544.56;;;20.69;28.29
73501;BME280;61721;42.206;25.320;2024-03-23T10:08:40;99532.13;;;21.05;27.37
73501;BME280;61721;42.206;25.320;2024-03-23T10:11:13;99529.34;;;21.44;27.64
73501;BME280;61721;42.206;25.320;2024-03-23T10:13:42;99531.75;;;21.56;26.87
73501;BME280;61721;42.206;25.320;2024-03-23T10:16:10;99528.19;;;21.17;28.61
73501;BME280;61721;42.206;25.320;2024-03-23T10:18:40;99508.66;;;18.47;31.62
73501;BME280;61721;42.206;25.320;2024-03-23T10:21:08;99509.59;;;18.88;31.18
73501;BME280;61721;42.206;25.320;2024-03-23T10:23:35;99510.78;;;20.23;29.48
73501;BME280;61721;42.206;25.320;2024-03-23T10:26:23;99513.19;;;18.01;30.16
73501;BME280;61721;42.206;25.320;2024-03-23T10:28:52;99500.03;;;18.18;31.46
73501;BME280;61721;42.206;25.320;2024-03-23T10:31:20;99498.97;;;20.07;29.84
73501;BME280;61721;42.206;25.320;2024-03-23T10:33:47;99496.94;;;19.48;28.53
73501;BME280;61721;42.206;25.320;2024-03-23T10:36:14;99484.19;;;19.42;26.82
73501;BME280;61721;42.206;25.320;2024-03-23T10:38:41;99480.41;;;20.67;26.75
73501;BME280;61721;42.206;25.320;2024-03-23T10:41:09;99482.66;;;21.91;25.31
73501;BME280;61721;42.206;25.320;2024-03-23T10:43:37;99469.06;;;19.19;26.35
73501;BME280;61721;42.206;25.320;2024-03-23T10:46:05;99468.91;;;20.55;25.95
73501;BME280;61721;42.206;25.320;2024-03-23T10:48:33;99463.22;;;20.36;24.86
73501;BME280;61721;42.206;25.320;2024-03-23T10:51:00;99459.03;;;19.79;23.14
73501;BME280;61721;42.206;25.320;2024-03-23T10:53:28;99456.00;;;19.71;24.57
73501;BME280;61721;42.206;25.320;2024-03-23T10:55:55;99456.03;;;20.35;23.95
73501;BME280;61721;42.206;25.320;2024-03-23T10:58:26;99449.31;;;19.97;23.66
73501;BME280;61721;42.206;25.320;2024-03-23T11:00:55;99445.09;;;18.79;23.57
73501;BME280;61721;42.206;25.320;2024-03-23T11:03:33;99441.69;;;18.47;22.42
73501;BME280;61721;42.206;25.320;2024-03-23T11:06:00;99436.19;;;19.43;22.80
73501;BME280;61721;42.206;25.320;2024-03-23T11:08:32;99425.22;;;18.98;24.21
73501;BME280;61721;42.206;25.320;2024-03-23T11:11:17;99427.84;;;19.74;24.03
73501;BME280;61721;42.206;25.320;2024-03-23T11:13:47;99419.09;;;18.40;22.83
73501;BME280;61721;42.206;25.320;2024-03-23T11:16:16;99419.72;;;18.98;23.59
73501;BME280;61721;42.206;25.320;2024-03-23T11:18:44;99413.59;;;18.40;22.16
73501;BME280;61721;42.206;25.320;2024-03-23T11:21:11;99408.13;;;18.45;22.52
73501;BME280;61721;42.206;25.320;2024-03-23T11:24:13;99395.47;;;18.79;22.20
73501;BME280;61721;42.206;25.320;2024-03-23T11:26:39;99401.47;;;19.17;21.06
73501;BME280;61721;42.206;25.320;2024-03-23T11:29:10;99402.16;;;17.75;23.48
73501;BME280;61721;42.206;25.320;2024-03-23T11:31:38;99392.59;;;18.03;23.05
73501;BME280;61721;42.206;25.320;2024-03-23T11:34:06;99388.28;;;18.68;23.23
73501;BME280;61721;42.206;25.320;2024-03-23T11:36:32;99389.88;;;18.18;22.51
73501;BME280;61721;42.206;25.320;2024-03-23T11:39:11;99380.00;;;18.53;23.88
73501;BME280;61721;42.206;25.320;2024-03-23T11:41:46;99373.41;;;18.89;21.11
73501;BME280;61721;42.206;25.320;2024-03-23T11:44:17;99367.78;;;17.98;22.38
73501;BME280;61721;42.206;25.320;2024-03-23T11:46:45;99367.91;;;18.89;22.42
73501;BME280;61721;42.206;25.320;2024-03-23T11:49:23;99369.84;;;18.64;21.77
73501;BME280;61721;42.206;25.320;2024-03-23T11:51:49;99360.59;;;19.49;21.55
73501;BME280;61721;42.206;25.320;2024-03-23T11:54:20;99358.50;;;19.01;21.58
73501;BME280;61721;42.206;25.320;2024-03-23T11:56:57;99346.84;;;19.98;21.36
73501;BME280;61721;42.206;25.320;2024-03-23T11:59:31;99344.06;;;19.34;22.45
73501;BME280;61721;42.206;25.320;2024-03-23T12:02:00;99340.19;;;19.40;22.61
73501;BME280;61721;42.206;25.320;2024-03-23T12:04:28;99328.91;;;19.32;22.43
73501;BME280;61721;42.206;25.320;2024-03-23T12:07:12;99328.13;;;19.16;21.75
73501;BME280;61721;42.206;25.320;2024-03-23T12:09:39;99325.97;;;18.87;22.18
73501;BME280;61721;42.206;25.320;2024-03-23T12:12:08;99322.28;;;19.92;22.23
73501;BME280;61721;42.206;25.320;2024-03-23T12:14:36;99313.72;;;19.34;22.05
73501;BME280;61721;42.206;25.320;2024-03-23T12:17:11;99304.50;;;18.74;22.32
73501;BME280;61721;42.206;25.320;2024-03-23T12:19:38;99306.16;;;18.14;21.96
73501;BME280;61721;42.206;25.320;2024-03-23T12:22:06;99299.53;;;17.90;22.59
73501;BME280;61721;42.206;25.320;2024-03-23T12:24:34;99294.88;;;18.51;22.18
73501;BME280;61721;42.206;25.320;2024-03-23T12:27:02;99285.22;;;18.69;21.55
73501;BME280;61721;42.206;25.320;2024-03-23T12:29:30;99297.63;;;18.16;22.06
73501;BME280;61721;42.206;25.320;2024-03-23T12:31:59;99284.09;;;17.84;22.78
73501;BME280;61721;42.206;25.320;2024-03-23T12:34:28;99274.72;;;17.65;23.18
73501;BME280;61721;42.206;25.320;2024-03-23T12:36:56;99269.22;;;18.46;23.39
73501;BME280;61721;42.206;25.320;2024-03-23T12:39:23;99285.50;;;18.32;22.17
73501;BME280;61721;42.206;25.320;2024-03-23T12:41:50;99276.97;;;18.34;23.03
73501;BME280;61721;42.206;25.320;2024-03-23T12:44:18;99276.13;;;18.74;22.50
73501;BME280;61721;42.206;25.320;2024-03-23T12:46:45;99267.00;;;18.78;22.14
73501;BME280;61721;42.206;25.320;2024-03-23T12:49:12;99272.31;;;18.24;21.63
73501;BME280;61721;42.206;25.320;2024-03-23T12:51:47;99259.47;;;19.09;21.93
73501;BME280;61721;42.206;25.320;2024-03-23T12:54:15;99250.22;;;18.70;21.43
73501;BME280;61721;42.206;25.320;2024-03-23T12:56:41;99241.88;;;19.00;21.92
73501;BME280;61721;42.206;25.320;2024-03-23T12:59:09;99243.53;;;19.01;21.83
73501;BME280;61721;42.206;25.320;2024-03-23T13:01:35;99246.66;;;18.59;21.68
73501;BME280;61721;42.206;25.320;2024-03-23T13:04:03;99232.50;;;19.01;20.78
73501;BME280;61721;42.206;25.320;2024-03-23T13:06:29;99234.44;;;18.96;21.66
73501;BME280;61721;42.206;25.320;2024-03-23T13:09:02;99236.69;;;18.83;21.18
73501;BME280;61721;42.206;25.320;2024-03-23T13:11:29;99233.91;;;18.88;22.00
73501;BME280;61721;42.206;25.320;2024-03-23T13:13:56;99230.06;;;18.79;22.01
73501;BME280;61721;42.206;25.320;2024-03-23T13:16:22;99226.22;;;18.75;22.80
73501;BME280;61721;42.206;25.320;2024-03-23T13:18:50;99217.44;;;18.53;22.23
73501;BME280;61721;42.206;25.320;2024-03-23T13:21:16;99210.03;;;18.28;22.58
73501;BME280;61721;42.206;25.320;2024-03-23T13:23:46;99207.00;;;18.45;22.57
73501;BME280;61721;42.206;25.320;2024-03-23T13:26:15;99206.47;;;18.28;23.24
73501;BME280;61721;42.206;25.320;2024-03-23T13:28:42;99199.53;;;18.50;23.33
73501;BME280;61721;42.206;25.320;2024-03-23T13:31:10;99197.59;;;18.51;24.89
73501;BME280;61721;42.206;25.320;2024-03-23T13:33:37;99195.41;;;18.58;25.67
73501;BME280;61721;42.206;25.320;2024-03-23T13:36:04;99200.91;;;18.68;26.04
73501;BME280;61721;42.206;25.320;2024-03-23T13:38:32;99189.69;;;18.19;25.27
73501;BME280;61721;42.206;25.320;2024-03-23T13:40:59;99191.00;;;18.57;25.50
73501;BME280;61721;42.206;25.320;2024-03-23T13:43:28;99197.59;;;18.56;26.14
73501;BME280;61721;42.206;25.320;2024-03-23T13:45:55;99189.31;;;18.71;25.02
73501;BME280;61721;42.206;25.320;2024-03-23T13:48:24;99187.72;;;18.40;24.00
73501;BME280;61721;42.206;25.320;2024-03-23T13:50:57;99178.31;;;18.51;24.24
73501;BME280;61721;42.206;25.320;2024-03-23T13:53:24;99171.69;;;18.67;25.31